Terminal Aerodrome Forecast
Issued by NWS

Home | Current Version | Previous Version | Text Only | Print | Product List | Glossary On
Versions: 1 2 3 4 5 6 7 8 9 10 11 12 13 14 15 16 17 18 19 20 21 22 23 24 25 26 27 28 29 30 31 32 33 34 35 36 37 38 39
656
FTUS43 KDVN 291821 AAA
TAFCID
TAF AMD
KCID 291821Z 2918/3018 08017G23KT 6SM BR VCSH SCT011 OVC040
     FM292000 07020G25KT P6SM VCSH OVC006
     FM292200 07018G23KT 2SM RA BR OVC005
     FM301200 06015G20KT 3SM -RA BR OVC010=

USA.gov is the U.S. government's official web portal to all federal, state and local government web resources and services.